sensor_id;sensor_type;location;lat;lon;timestamp;pressure;altitude;pressure_sealevel;temperature;humidity
79123;BME280;68526;44.600;26.032;2023-07-20T00:00:10;99672.16;;;24.68;64.28
79123;BME280;68526;44.600;26.032;2023-07-20T00:00:29;99677.78;;;24.68;64.12
79123;BME280;68526;44.600;26.032;2023-07-20T00:00:44;99676.53;;;24.69;63.89
79123;BME280;68526;44.600;26.032;2023-07-20T00:01:00;99677.31;;;24.70;64.00
79123;BME280;68526;44.600;26.032;2023-07-20T00:01:16;99677.78;;;24.68;64.15
79123;BME280;68526;44.600;26.032;2023-07-20T00:01:33;99671.72;;;24.70;64.22
79123;BME280;68526;44.600;26.032;2023-07-20T00:01:49;99680.13;;;24.70;64.29
79123;BME280;68526;44.600;26.032;2023-07-20T00:02:05;99675.75;;;24.69;64.18
79123;BME280;68526;44.600;26.032;2023-07-20T00:02:22;99682.94;;;24.70;64.51
79123;BME280;68526;44.600;26.032;2023-07-20T00:02:39;99674.19;;;24.68;64.16
79123;BME280;68526;44.600;26.032;2023-07-20T00:03:10;99680.13;;;24.70;64.04
79123;BME280;68526;44.600;26.032;2023-07-20T00:03:26;99680.91;;;24.70;64.09
79123;BME280;68526;44.600;26.032;2023-07-20T00:03:42;99687.69;;;24.73;63.77
79123;BME280;68526;44.600;26.032;2023-07-20T00:03:57;99686.88;;;24.72;63.87
79123;BME280;68526;44.600;26.032;2023-07-20T00:04:13;99694.91;;;24.70;64.20
79123;BME280;68526;44.600;26.032;2023-07-20T00:04:30;99691.78;;;24.68;64.42
79123;BME280;68526;44.600;26.032;2023-07-20T00:04:46;99682.94;;;24.70;64.19
79123;BME280;68526;44.600;26.032;2023-07-20T00:05:02;99686.06;;;24.72;64.40
79123;BME280;68526;44.600;26.032;2023-07-20T00:05:18;99688.09;;;24.71;64.39
79123;BME280;68526;44.600;26.032;2023-07-20T00:05:36;99692.47;;;24.72;64.22
79123;BME280;68526;44.600;26.032;2023-07-20T00:05:52;99688.88;;;24.72;64.26
79123;BME280;68526;44.600;26.032;2023-07-20T00:06:07;99701.69;;;24.73;64.35
79123;BME280;68526;44.600;26.032;2023-07-20T00:06:24;99694.47;;;24.72;64.40
79123;BME280;68526;44.600;26.032;2023-07-20T00:06:42;99708.06;;;24.73;64.32
79123;BME280;68526;44.600;26.032;2023-07-20T00:06:58;99701.69;;;24.73;64.48
79123;BME280;68526;44.600;26.032;2023-07-20T00:07:14;99702.47;;;24.73;64.26
79123;BME280;68526;44.600;26.032;2023-07-20T00:07:30;99703.25;;;24.74;64.41
79123;BME280;68526;44.600;26.032;2023-07-20T00:07:46;99698.88;;;24.73;64.55
79123;BME280;68526;44.600;26.032;2023-07-20T00:08:01;99693.63;;;24.75;64.48
79123;BME280;68526;44.600;26.032;2023-07-20T00:08:18;99689.31;;;24.70;63.99
79123;BME280;68526;44.600;26.032;2023-07-20T00:08:34;99699.22;;;24.75;64.23
79123;BME280;68526;44.600;26.032;2023-07-20T00:08:50;99705.63;;;24.75;64.42
79123;BME280;68526;44.600;26.032;2023-07-20T00:09:06;99702.81;;;24.75;64.68
79123;BME280;68526;44.600;26.032;2023-07-20T00:09:22;99700.03;;;24.75;64.46
79123;BME280;68526;44.600;26.032;2023-07-20T00:09:38;99700.81;;;24.76;64.62
79123;BME280;68526;44.600;26.032;2023-07-20T00:09:54;99703.25;;;24.74;65.03
79123;BME280;68526;44.600;26.032;2023-07-20T00:10:09;99709.22;;;24.76;64.81
79123;BME280;68526;44.600;26.032;2023-07-20T00:10:25;99703.59;;;24.76;64.82
79123;BME280;68526;44.600;26.032;2023-07-20T00:10:42;99700.81;;;24.76;64.61
79123;BME280;68526;44.600;26.032;2023-07-20T00:10:58;99712.78;;;24.76;65.11
79123;BME280;68526;44.600;26.032;2023-07-20T00:11:14;99697.22;;;24.75;65.00
79123;BME280;68526;44.600;26.032;2023-07-20T00:11:29;99702.03;;;24.75;64.99
79123;BME280;68526;44.600;26.032;2023-07-20T00:11:49;99703.59;;;24.76;65.02
79123;BME280;68526;44.600;26.032;2023-07-20T00:12:06;99702.03;;;24.75;65.45
79123;BME280;68526;44.600;26.032;2023-07-20T00:12:22;99707.63;;;24.75;65.13
79123;BME280;68526;44.600;26.032;2023-07-20T00:12:37;99704.41;;;24.76;64.88
79123;BME280;68526;44.600;26.032;2023-07-20T00:12:54;99707.19;;;24.76;64.88
79123;BME280;68526;44.600;26.032;2023-07-20T00:13:11;99710.00;;;24.76;64.67
79123;BME280;68526;44.600;26.032;2023-07-20T00:13:27;99702.81;;;24.75;64.91
79123;BME280;68526;44.600;26.032;2023-07-20T00:13:43;99704.78;;;24.78;64.93
79123;BME280;68526;44.600;26.032;2023-07-20T00:13:58;99705.19;;;24.77;64.85
79123;BME280;68526;44.600;26.032;2023-07-20T00:14:14;99705.97;;;24.77;64.84
79123;BME280;68526;44.600;26.032;2023-07-20T00:14:30;99703.94;;;24.78;64.98
79123;BME280;68526;44.600;26.032;2023-07-20T00:14:47;99707.56;;;24.78;65.05
79123;BME280;68526;44.600;26.032;2023-07-20T00:15:09;99708.34;;;24.79;65.41
79123;BME280;68526;44.600;26.032;2023-07-20T00:15:32;99707.56;;;24.78;65.68
79123;BME280;68526;44.600;26.032;2023-07-20T00:15:47;99716.38;;;24.77;65.94
79123;BME280;68526;44.600;26.032;2023-07-20T00:16:03;99708.06;;;24.73;65.95
79123;BME280;68526;44.600;26.032;2023-07-20T00:16:19;99707.56;;;24.78;65.85
79123;BME280;68526;44.600;26.032;2023-07-20T00:16:37;99708.34;;;24.79;65.84
79123;BME280;68526;44.600;26.032;2023-07-20T00:16:55;99708.34;;;24.79;65.89
79123;BME280;68526;44.600;26.032;2023-07-20T00:17:11;99704.78;;;24.78;65.94
79123;BME280;68526;44.600;26.032;2023-07-20T00:17:27;99699.94;;;24.79;65.80
79123;BME280;68526;44.600;26.032;2023-07-20T00:17:42;99702.81;;;24.75;65.79
79123;BME280;68526;44.600;26.032;2023-07-20T00:18:00;99708.84;;;24.74;65.46
79123;BME280;68526;44.600;26.032;2023-07-20T00:18:15;99707.19;;;24.76;65.35
79123;BME280;68526;44.600;26.032;2023-07-20T00:18:31;99703.94;;;24.78;65.08
79123;BME280;68526;44.600;26.032;2023-07-20T00:18:48;99705.97;;;24.77;65.09
79123;BME280;68526;44.600;26.032;2023-07-20T00:19:04;99710.38;;;24.78;64.93
79123;BME280;68526;44.600;26.032;2023-07-20T00:19:22;99700.75;;;24.80;64.68
79123;BME280;68526;44.600;26.032;2023-07-20T00:19:38;99707.91;;;24.81;64.78
79123;BME280;68526;44.600;26.032;2023-07-20T00:19:54;99705.13;;;24.81;64.75
79123;BME280;68526;44.600;26.032;2023-07-20T00:20:10;99700.31;;;24.81;64.77
79123;BME280;68526;44.600;26.032;2023-07-20T00:20:26;99700.31;;;24.81;64.71
79123;BME280;68526;44.600;26.032;2023-07-20T00:20:43;99701.09;;;24.82;64.59
79123;BME280;68526;44.600;26.032;2023-07-20T00:20:59;99700.75;;;24.80;64.51
79123;BME280;68526;44.600;26.032;2023-07-20T00:21:15;99709.50;;;24.82;64.45
79123;BME280;68526;44.600;26.032;2023-07-20T00:21:31;99697.94;;;24.80;64.48
79123;BME280;68526;44.600;26.032;2023-07-20T00:21:46;99702.31;;;24.81;64.54
79123;BME280;68526;44.600;26.032;2023-07-20T00:22:02;99703.88;;;24.82;64.40
79123;BME280;68526;44.600;26.032;2023-07-20T00:22:20;99703.88;;;24.82;64.28
79123;BME280;68526;44.600;26.032;2023-07-20T00:22:36;99704.69;;;24.82;63.99
79123;BME280;68526;44.600;26.032;2023-07-20T00:22:52;99705.47;;;24.83;63.92
79123;BME280;68526;44.600;26.032;2023-07-20T00:23:10;99711.84;;;24.83;63.93
79123;BME280;68526;44.600;26.032;2023-07-20T00:23:26;99706.25;;;24.83;63.92
79123;BME280;68526;44.600;26.032;2023-07-20T00:23:41;99711.84;;;24.83;63.83
79123;BME280;68526;44.600;26.032;2023-07-20T00:23:57;99720.25;;;24.83;63.77
79123;BME280;68526;44.600;26.032;2023-07-20T00:24:13;99720.25;;;24.83;63.62
79123;BME280;68526;44.600;26.032;2023-07-20T00:24:29;99716.66;;;24.83;63.56
79123;BME280;68526;44.600;26.032;2023-07-20T00:24:44;99719.13;;;24.81;63.36
79123;BME280;68526;44.600;26.032;2023-07-20T00:25:02;99731.13;;;24.81;63.23
79123;BME280;68526;44.600;26.032;2023-07-20T00:25:18;99726.28;;;24.82;63.28
79123;BME280;68526;44.600;26.032;2023-07-20T00:25:34;99726.66;;;24.84;63.00
79123;BME280;68526;44.600;26.032;2023-07-20T00:25:50;99731.91;;;24.82;62.84
79123;BME280;68526;44.600;26.032;2023-07-20T00:26:06;99735.13;;;24.80;62.84
79123;BME280;68526;44.600;26.032;2023-07-20T00:26:22;99739.50;;;24.81;62.79
79123;BME280;68526;44.600;26.032;2023-07-20T00:26:37;99753.53;;;24.81;62.74
79123;BME280;68526;44.600;26.032;2023-07-20T00:26:54;99755.53;;;24.81;62.81
79123;BME280;68526;44.600;26.032;2023-07-20T00:27:10;99760.34;;;24.80;62.57
79123;BME280;68526;44.600;26.032;2023-07-20T00:27:26;99761.56;;;24.79;62.38
79123;BME280;68526;44.600;26.032;2023-07-20T00:27:41;99769.59;;;24.77;62.45
79123;BME280;68526;44.600;26.032;2023-07-20T00:27:57;99771.25;;;24.74;62.18
79123;BME280;68526;44.600;26.032;2023-07-20T00:28:13;99784.81;;;24.76;62.07
79123;BME280;68526;44.600;26.032;2023-07-20T00:28:29;99789.66;;;24.75;62.04
79123;BME280;68526;44.600;26.032;2023-07-20T00:28:45;99783.25;;;24.75;61.77
79123;BME280;68526;44.600;26.032;2023-07-20T00:29:01;99789.28;;;24.73;61.75
79123;BME280;68526;44.600;26.032;2023-07-20T00:29:17;99798.88;;;24.72;61.63
79123;BME280;68526;44.600;26.032;2023-07-20T00:29:33;99781.72;;;24.70;61.57
79123;BME280;68526;44.600;26.032;2023-07-20T00:29:49;99787.69;;;24.72;61.52
79123;BME280;68526;44.600;26.032;2023-07-20T00:30:05;99785.72;;;24.73;61.45
79123;BME280;68526;44.600;26.032;2023-07-20T00:30:21;99779.28;;;24.72;61.54
79123;BME280;68526;44.600;26.032;2023-07-20T00:30:38;99780.88;;;24.73;61.43
79123;BME280;68526;44.600;26.032;2023-07-20T00:30:54;99777.31;;;24.73;61.37
79123;BME280;68526;44.600;26.032;2023-07-20T00:31:10;99783.31;;;24.71;61.19
79123;BME280;68526;44.600;26.032;2023-07-20T00:31:25;99784.09;;;24.72;61.25
79123;BME280;68526;44.600;26.032;2023-07-20T00:31:43;99782.47;;;24.74;61.20
79123;BME280;68526;44.600;26.032;2023-07-20T00:31:59;99780.00;;;24.76;61.34
79123;BME280;68526;44.600;26.032;2023-07-20T00:32:15;99776.44;;;24.76;61.11
79123;BME280;68526;44.600;26.032;2023-07-20T00:32:32;99775.28;;;24.73;61.26
79123;BME280;68526;44.600;26.032;2023-07-20T00:32:48;99767.69;;;24.74;61.22
79123;BME280;68526;44.600;26.032;2023-07-20T00:33:03;99772.06;;;24.75;61.26
79123;BME280;68526;44.600;26.032;2023-07-20T00:33:19;99780.88;;;24.73;61.69
79123;BME280;68526;44.600;26.032;2023-07-20T00:33:35;99776.88;;;24.74;61.43
79123;BME280;68526;44.600;26.032;2023-07-20T00:33:50;99791.22;;;24.76;61.39
79123;BME280;68526;44.600;26.032;2023-07-20T00:34:06;99771.25;;;24.74;61.54
79123;BME280;68526;44.600;26.032;2023-07-20T00:34:23;99776.06;;;24.74;61.66
79123;BME280;68526;44.600;26.032;2023-07-20T00:34:39;99785.63;;;24.76;61.70
79123;BME280;68526;44.600;26.032;2023-07-20T00:34:54;99784.88;;;24.72;61.69
79123;BME280;68526;44.600;26.032;2023-07-20T00:35:10;99787.69;;;24.72;61.78
79123;BME280;68526;44.600;26.032;2023-07-20T00:35:27;99788.06;;;24.74;61.65
79123;BME280;68526;44.600;26.032;2023-07-20T00:35:42;99788.50;;;24.73;61.63
79123;BME280;68526;44.600;26.032;2023-07-20T00:35:59;99782.47;;;24.74;61.61
79123;BME280;68526;44.600;26.032;2023-07-20T00:36:15;99783.25;;;24.75;61.71
79123;BME280;68526;44.600;26.032;2023-07-20T00:36:31;99776.88;;;24.74;61.87
79123;BME280;68526;44.600;26.032;2023-07-20T00:36:47;99788.84;;;24.75;61.82
79123;BME280;68526;44.600;26.032;2023-07-20T00:37:04;99796.81;;;24.76;61.93
79123;BME280;68526;44.600;26.032;2023-07-20T00:37:20;99784.47;;;24.74;61.93
79123;BME280;68526;44.600;26.032;2023-07-20T00:37:36;99784.47;;;24.74;61.93
79123;BME280;68526;44.600;26.032;2023-07-20T00:37:52;99784.03;;;24.75;61.88
79123;BME280;68526;44.600;26.032;2023-07-20T00:38:08;99784.81;;;24.76;61.91
79123;BME280;68526;44.600;26.032;2023-07-20T00:38:24;99788.84;;;24.75;62.00
79123;BME280;68526;44.600;26.032;2023-07-20T00:38:42;99782.81;;;24.76;61.96
79123;BME280;68526;44.600;26.032;2023-07-20T00:38:58;99772.50;;;24.73;62.12
79123;BME280;68526;44.600;26.032;2023-07-20T00:39:13;99778.44;;;24.75;61.98
79123;BME280;68526;44.600;26.032;2023-07-20T00:39:29;99775.63;;;24.75;61.76
79123;BME280;68526;44.600;26.032;2023-07-20T00:39:45;99778.00;;;24.77;61.90
79123;BME280;68526;44.600;26.032;2023-07-20T00:40:02;99783.19;;;24.78;61.79
79123;BME280;68526;44.600;26.032;2023-07-20T00:40:20;99779.16;;;24.80;61.85
79123;BME280;68526;44.600;26.032;2023-07-20T00:40:36;99776.78;;;24.78;61.66
79123;BME280;68526;44.600;26.032;2023-07-20T00:40:52;99773.19;;;24.77;61.63
79123;BME280;68526;44.600;26.032;2023-07-20T00:41:08;99770.75;;;24.80;61.81
79123;BME280;68526;44.600;26.032;2023-07-20T00:41:23;99775.59;;;24.79;61.94
79123;BME280;68526;44.600;26.032;2023-07-20T00:41:39;99768.75;;;24.80;61.81
79123;BME280;68526;44.600;26.032;2023-07-20T00:41:55;99775.16;;;24.81;62.07
79123;BME280;68526;44.600;26.032;2023-07-20T00:42:12;99773.13;;;24.81;61.96
79123;BME280;68526;44.600;26.032;2023-07-20T00:42:27;99769.09;;;24.82;61.94
79123;BME280;68526;44.600;26.032;2023-07-20T00:42:43;99778.72;;;24.81;62.03
79123;BME280;68526;44.600;26.032;2023-07-20T00:42:59;99780.31;;;24.82;61.74
79123;BME280;68526;44.600;26.032;2023-07-20T00:43:15;99779.06;;;24.83;61.95
79123;BME280;68526;44.600;26.032;2023-07-20T00:43:30;99778.28;;;24.83;61.81
79123;BME280;68526;44.600;26.032;2023-07-20T00:43:46;99778.72;;;24.81;61.84
79123;BME280;68526;44.600;26.032;2023-07-20T00:44:02;99781.09;;;24.83;61.59
79123;BME280;68526;44.600;26.032;2023-07-20T00:44:19;99789.88;;;24.85;61.70
79123;BME280;68526;44.600;26.032;2023-07-20T00:44:35;99784.28;;;24.85;61.89
79123;BME280;68526;44.600;26.032;2023-07-20T00:44:50;99785.84;;;24.86;62.07
79123;BME280;68526;44.600;26.032;2023-07-20T00:45:06;99785.06;;;24.85;61.80
79123;BME280;68526;44.600;26.032;2023-07-20T00:45:27;99787.41;;;24.87;61.90
79123;BME280;68526;44.600;26.032;2023-07-20T00:45:44;99782.59;;;24.87;61.64
79123;BME280;68526;44.600;26.032;2023-07-20T00:46:00;99781.81;;;24.87;61.71
79123;BME280;68526;44.600;26.032;2023-07-20T00:46:18;99784.97;;;24.89;61.57
79123;BME280;68526;44.600;26.032;2023-07-20T00:46:34;99782.16;;;24.89;61.64
79123;BME280;68526;44.600;26.032;2023-07-20T00:46:52;99784.53;;;24.90;61.81
79123;BME280;68526;44.600;26.032;2023-07-20T00:47:07;99783.75;;;24.90;61.64
79123;BME280;68526;44.600;26.032;2023-07-20T00:47:24;99780.16;;;24.89;61.89
79123;BME280;68526;44.600;26.032;2023-07-20T00:47:40;99778.59;;;24.88;61.81
79123;BME280;68526;44.600;26.032;2023-07-20T00:47:56;99777.78;;;24.88;61.76
79123;BME280;68526;44.600;26.032;2023-07-20T00:48:13;99778.16;;;24.90;61.77
79123;BME280;68526;44.600;26.032;2023-07-20T00:48:31;99784.97;;;24.89;61.84
79123;BME280;68526;44.600;26.032;2023-07-20T00:48:47;99783.75;;;24.90;61.75
79123;BME280;68526;44.600;26.032;2023-07-20T00:49:03;99786.53;;;24.90;61.91
79123;BME280;68526;44.600;26.032;2023-07-20T00:49:19;99776.13;;;24.90;61.86
79123;BME280;68526;44.600;26.032;2023-07-20T00:49:37;99777.72;;;24.91;61.90
79123;BME280;68526;44.600;26.032;2023-07-20T00:49:54;99781.31;;;24.92;61.95
79123;BME280;68526;44.600;26.032;2023-07-20T00:50:10;99779.75;;;24.91;62.32
79123;BME280;68526;44.600;26.032;2023-07-20T00:50:26;99781.81;;;24.87;62.53
79123;BME280;68526;44.600;26.032;2023-07-20T00:50:42;99790.56;;;24.89;62.65
79123;BME280;68526;44.600;26.032;2023-07-20T00:51:00;99775.00;;;24.88;62.43
79123;BME280;68526;44.600;26.032;2023-07-20T00:51:16;99787.41;;;24.87;62.58
79123;BME280;68526;44.600;26.032;2023-07-20T00:51:31;99787.41;;;24.87;62.66
79123;BME280;68526;44.600;26.032;2023-07-20T00:51:48;99790.56;;;24.89;62.47
79123;BME280;68526;44.600;26.032;2023-07-20T00:52:06;99782.16;;;24.89;62.56
79123;BME280;68526;44.600;26.032;2023-07-20T00:52:23;99786.53;;;24.90;62.42
79123;BME280;68526;44.600;26.032;2023-07-20T00:52:41;99783.34;;;24.91;62.44
79123;BME280;68526;44.600;26.032;2023-07-20T00:52:57;99783.75;;;24.90;62.55
79123;BME280;68526;44.600;26.032;2023-07-20T00:53:14;99778.94;;;24.90;62.38
79123;BME280;68526;44.600;26.032;2023-07-20T00:53:30;99784.53;;;24.90;62.71
79123;BME280;68526;44.600;26.032;2023-07-20T00:53:46;99784.91;;;24.92;62.59
79123;BME280;68526;44.600;26.032;2023-07-20T00:54:03;99778.53;;;24.92;62.95
79123;BME280;68526;44.600;26.032;2023-07-20T00:54:18;99785.34;;;24.91;63.08
79123;BME280;68526;44.600;26.032;2023-07-20T00:54:34;99781.31;;;24.92;63.23
79123;BME280;68526;44.600;26.032;2023-07-20T00:54:50;99785.34;;;24.91;63.62
79123;BME280;68526;44.600;26.032;2023-07-20T00:55:07;99786.13;;;24.91;63.46
79123;BME280;68526;44.600;26.032;2023-07-20T00:55:24;99783.34;;;24.91;63.47
79123;BME280;68526;44.600;26.032;2023-07-20T00:55:40;99788.50;;;24.93;63.59
79123;BME280;68526;44.600;26.032;2023-07-20T00:55:57;99785.69;;;24.93;63.29
79123;BME280;68526;44.600;26.032;2023-07-20T00:56:13;99786.13;;;24.91;63.38
79123;BME280;68526;44.600;26.032;2023-07-20T00:56:29;99781.31;;;24.92;63.28
79123;BME280;68526;44.600;26.032;2023-07-20T00:56:45;99782.09;;;24.92;63.29
79123;BME280;68526;44.600;26.032;2023-07-20T00:57:01;99783.69;;;24.93;63.08
79123;BME280;68526;44.600;26.032;2023-07-20T00:57:18;99779.31;;;24.92;62.82
79123;BME280;68526;44.600;26.032;2023-07-20T00:57:35;99780.88;;;24.93;63.14
79123;BME280;68526;44.600;26.032;2023-07-20T00:57:51;99783.69;;;24.93;63.05
79123;BME280;68526;44.600;26.032;2023-07-20T00:58:07;99775.63;;;24.95;62.99
79123;BME280;68526;44.600;26.032;2023-07-20T00:58:23;99778.88;;;24.94;63.13
79123;BME280;68526;44.600;26.032;2023-07-20T00:58:39;99782.00;;;24.96;63.26
79123;BME280;68526;44.600;26.032;2023-07-20T00:58:55;99782.84;;;24.96;63.33
79123;BME280;68526;44.600;26.032;2023-07-20T00:59:12;99775.63;;;24.95;63.63
79123;BME280;68526;44.600;26.032;2023-07-20T00:59:29;99782.84;;;24.96;64.30
79123;BME280;68526;44.600;26.032;2023-07-20T00:59:45;99765.22;;;24.96;64.18
79123;BME280;68526;44.600;26.032;2023-07-20T01:00:00;99769.63;;;24.97;64.34
79123;BME280;68526;44.600;26.032;2023-07-20T01:00:17;99759.59;;;24.96;64.35
79123;BME280;68526;44.600;26.032;2023-07-20T01:00:33;99774.84;;;24.95;64.79
79123;BME280;68526;44.600;26.032;2023-07-20T01:00:48;99768.00;;;24.96;64.56
79123;BME280;68526;44.600;26.032;2023-07-20T01:01:05;99768.81;;;24.96;64.39
79123;BME280;68526;44.600;26.032;2023-07-20T01:01:22;99762.41;;;24.96;64.26
79123;BME280;68526;44.600;26.032;2023-07-20T01:01:37;99768.38;;;24.98;63.95
79123;BME280;68526;44.600;26.032;2023-07-20T01:01:55;99769.19;;;24.98;64.13
79123;BME280;68526;44.600;26.032;2023-07-20T01:02:11;99768.38;;;24.98;64.17
79123;BME280;68526;44.600;26.032;2023-07-20T01:02:26;99769.53;;;25.00;64.21
79123;BME280;68526;44.600;26.032;2023-07-20T01:02:42;99764.34;;;24.99;64.36
79123;BME280;68526;44.600;26.032;2023-07-20T01:02:58;99763.13;;;25.00;64.41
79123;BME280;68526;44.600;26.032;2023-07-20T01:03:14;99768.72;;;25.00;64.56
79123;BME280;68526;44.600;26.032;2023-07-20T01:03:30;99753.94;;;24.99;64.82
79123;BME280;68526;44.600;26.032;2023-07-20T01:03:46;99753.16;;;24.99;65.00
79123;BME280;68526;44.600;26.032;2023-07-20T01:04:02;99755.94;;;24.99;64.81
79123;BME280;68526;44.600;26.032;2023-07-20T01:04:18;99759.53;;;24.99;64.73
79123;BME280;68526;44.600;26.032;2023-07-20T01:04:35;99754.72;;;25.00;64.45
79123;BME280;68526;44.600;26.032;2023-07-20T01:04:52;99751.94;;;25.00;64.66
79123;BME280;68526;44.600;26.032;2023-07-20T01:05:09;99763.13;;;25.00;64.63
79123;BME280;68526;44.600;26.032;2023-07-20T01:05:31;99763.91;;;25.00;64.79
79123;BME280;68526;44.600;26.032;2023-07-20T01:05:59;99764.72;;;25.01;64.63
79123;BME280;68526;44.600;26.032;2023-07-20T01:06:26;99764.34;;;24.99;64.53
79123;BME280;68526;44.600;26.032;2023-07-20T01:06:51;99763.13;;;25.00;64.51
79123;BME280;68526;44.600;26.032;2023-07-20T01:07:13;99768.72;;;25.00;64.67
79123;BME280;68526;44.600;26.032;2023-07-20T01:07:34;99772.31;;;25.00;64.61
79123;BME280;68526;44.600;26.032;2023-07-20T01:07:54;99765.59;;;24.98;64.71
79123;BME280;68526;44.600;26.032;2023-07-20T01:08:24;99769.97;;;24.99;64.45
79123;BME280;68526;44.600;26.032;2023-07-20T01:08:49;99765.59;;;24.98;64.50
79123;BME280;68526;44.600;26.032;2023-07-20T01:09:13;99767.16;;;24.99;64.82
79123;BME280;68526;44.600;26.032;2023-07-20T01:09:34;99768.72;;;25.00;64.92
79123;BME280;68526;44.600;26.032;2023-07-20T01:10:01;99762.00;;;24.97;65.47
79123;BME280;68526;44.600;26.032;2023-07-20T01:10:27;99767.94;;;24.99;65.59
79123;BME280;68526;44.600;26.032;2023-07-20T01:10:51;99767.16;;;24.99;65.22
79123;BME280;68526;44.600;26.032;2023-07-20T01:11:14;99764.34;;;24.99;64.90
79123;BME280;68526;44.600;26.032;2023-07-20T01:11:49;99766.72;;;25.00;64.81
79123;BME280;68526;44.600;26.032;2023-07-20T01:12:13;99767.59;;;24.97;64.83
79123;BME280;68526;44.600;26.032;2023-07-20T01:12:41;99776.78;;;24.98;65.33
79123;BME280;68526;44.600;26.032;2023-07-20T01:12:57;99776.34;;;24.99;65.63
79123;BME280;68526;44.600;26.032;2023-07-20T01:13:14;99781.16;;;24.99;65.55
79123;BME280;68526;44.600;26.032;2023-07-20T01:13:32;99779.94;;;25.00;65.34
79123;BME280;68526;44.600;26.032;2023-07-20T01:13:49;99775.13;;;25.00;65.59
79123;BME280;68526;44.600;26.032;2023-07-20T01:14:05;99778.72;;;25.01;65.70
79123;BME280;68526;44.600;26.032;2023-07-20T01:14:23;99781.50;;;25.01;65.58
79123;BME280;68526;44.600;26.032;2023-07-20T01:14:40;99766.28;;;25.02;65.55
79123;BME280;68526;44.600;26.032;2023-07-20T01:14:56;99777.94;;;25.00;65.64
79123;BME280;68526;44.600;26.032;2023-07-20T01:15:13;99777.13;;;25.00;65.63
79123;BME280;68526;44.600;26.032;2023-07-20T01:15:28;99771.53;;;25.00;65.33
79123;BME280;68526;44.600;26.032;2023-07-20T01:15:49;99773.13;;;25.01;64.99
79123;BME280;68526;44.600;26.032;2023-07-20T01:16:05;99772.69;;;25.02;64.93
79123;BME280;68526;44.600;26.032;2023-07-20T01:16:22;99772.31;;;25.00;65.09
79123;BME280;68526;44.600;26.032;2023-07-20T01:16:38;99775.50;;;25.02;64.80
79123;BME280;68526;44.600;26.032;2023-07-20T01:16:55;99773.03;;;25.04;64.61
79123;BME280;68526;44.600;26.032;2023-07-20T01:17:11;99767.09;;;25.02;64.72
79123;BME280;68526;44.600;26.032;2023-07-20T01:17:27;99771.09;;;25.01;65.08
79123;BME280;68526;44.600;26.032;2023-07-20T01:17:43;99763.06;;;25.03;64.76
79123;BME280;68526;44.600;26.032;2023-07-20T01:18:01;99757.09;;;25.01;64.67
79123;BME280;68526;44.600;26.032;2023-07-20T01:18:17;99754.72;;;25.00;65.28
79123;BME280;68526;44.600;26.032;2023-07-20T01:18:33;99768.38;;;24.98;65.25
79123;BME280;68526;44.600;26.032;2023-07-20T01:18:49;99762.78;;;24.98;65.04
79123;BME280;68526;44.600;26.032;2023-07-20T01:19:05;99757.97;;;24.98;65.15
79123;BME280;68526;44.600;26.032;2023-07-20T01:19:20;99757.53;;;25.00;65.23
79123;BME280;68526;44.600;26.032;2023-07-20T01:19:36;99752.38;;;24.98;64.99
79123;BME280;68526;44.600;26.032;2023-07-20T01:19:52;99753.94;;;24.99;64.80
79123;BME280;68526;44.600;26.032;2023-07-20T01:20:12;99749.13;;;25.00;64.82
79123;BME280;68526;44.600;26.032;2023-07-20T01:20:30;99751.56;;;24.98;64.93
79123;BME280;68526;44.600;26.032;2023-07-20T01:20:47;99752.03;;;24.96;64.98
79123;BME280;68526;44.600;26.032;2023-07-20T01:21:09;99747.19;;;24.97;64.88
79123;BME280;68526;44.600;26.032;2023-07-20T01:21:34;99748.34;;;24.99;64.85
79123;BME280;68526;44.600;26.032;2023-07-20T01:21:55;99740.38;;;24.98;64.93
79123;BME280;68526;44.600;26.032;2023-07-20T01:22:26;99739.59;;;24.97;64.92
79123;BME280;68526;44.600;26.032;2023-07-20T01:23:12;99738.00;;;24.96;65.02
79123;BME280;68526;44.600;26.032;2023-07-20T01:24:52;99736.34;;;24.99;64.46
79123;BME280;68526;44.600;26.032;2023-07-20T01:25:23;99733.97;;;24.97;64.35
79123;BME280;68526;44.600;26.032;2023-07-20T01:26:01;99742.72;;;24.99;64.24
79123;BME280;68526;44.600;26.032;2023-07-20T01:26:45;99729.06;;;25.01;64.24
79123;BME280;68526;44.600;26.032;2023-07-20T01:27:22;99739.06;;;25.02;64.16
79123;BME280;68526;44.600;26.032;2023-07-20T01:28:01;99739.50;;;25.01;64.54
79123;BME280;68526;44.600;26.032;2023-07-20T01:28:37;99736.28;;;25.02;64.65
79123;BME280;68526;44.600;26.032;2023-07-20T01:29:13;99745.88;;;25.01;64.20
79123;BME280;68526;44.600;26.032;2023-07-20T01:29:51;99745.88;;;25.01;64.38
79123;BME280;68526;44.600;26.032;2023-07-20T01:30:28;99751.56;;;24.98;64.45
79123;BME280;68526;44.600;26.032;2023-07-20T01:30:55;99747.19;;;24.97;64.49
79123;BME280;68526;44.600;26.032;2023-07-20T01:31:21;99753.22;;;24.95;64.57
79123;BME280;68526;44.600;26.032;2023-07-20T01:31:38;99746.47;;;24.93;64.33
79123;BME280;68526;44.600;26.032;2023-07-20T01:31:57;99750.06;;;24.93;64.30
79123;BME280;68526;44.600;26.032;2023-07-20T01:32:15;99756.53;;;24.90;64.03
79123;BME280;68526;44.600;26.032;2023-07-20T01:32:33;99758.91;;;24.92;64.15
79123;BME280;68526;44.600;26.032;2023-07-20T01:32:54;99755.66;;;24.93;64.07
79123;BME280;68526;44.600;26.032;2023-07-20T01:33:13;99761.28;;;24.93;63.98
79123;BME280;68526;44.600;26.032;2023-07-20T01:33:33;99757.69;;;24.93;64.04
79123;BME280;68526;44.600;26.032;2023-07-20T01:33:50;99760.47;;;24.93;64.00
79123;BME280;68526;44.600;26.032;2023-07-20T01:34:08;99756.09;;;24.92;64.33
79123;BME280;68526;44.600;26.032;2023-07-20T01:34:26;99754.53;;;24.91;64.45
79123;BME280;68526;44.600;26.032;2023-07-20T01:34:44;99754.94;;;24.89;64.31